createdAt,value
2023-02-08T00:00:49.875Z,15.23
2023-02-08T00:03:16.664Z,15.02
2023-02-08T00:05:44.018Z,14.60
2023-02-08T00:08:10.868Z,13.55
2023-02-08T00:10:37.663Z,16.17
2023-02-08T00:13:07.981Z,14.98
2023-02-08T00:15:35.582Z,14.73
2023-02-08T00:18:02.440Z,16.98
2023-02-08T00:20:29.588Z,18.35
2023-02-08T00:22:56.592Z,18.05
2023-02-08T00:25:23.403Z,17.75
2023-02-08T00:27:50.287Z,19.75
2023-02-08T00:30:17.102Z,18.05
2023-02-08T00:32:43.908Z,17.20
2023-02-08T00:35:10.884Z,18.17
2023-02-08T00:37:37.632Z,17.15
2023-02-08T00:40:06.051Z,16.83
2023-02-08T00:42:33.267Z,15.02
2023-02-08T00:45:00.043Z,16.85
2023-02-08T00:47:26.784Z,15.13
2023-02-08T00:49:53.543Z,15.38
2023-02-08T00:52:20.937Z,16.20
2023-02-08T00:54:47.989Z,17.48
2023-02-08T00:57:16.074Z,17.08
2023-02-08T00:59:42.937Z,14.95
2023-02-08T01:02:09.847Z,16.45
2023-02-08T01:04:37.011Z,16.05
2023-02-08T01:07:04.791Z,15.57
2023-02-08T01:09:32.557Z,15.35
2023-02-08T01:11:59.705Z,17.55
2023-02-08T01:14:26.819Z,16.83
2023-02-08T01:16:53.770Z,17.08
2023-02-08T01:19:20.567Z,17.83
2023-02-08T01:21:49.203Z,19.70
2023-02-08T01:24:16.964Z,17.80
2023-02-08T01:26:43.797Z,17.75
2023-02-08T01:29:10.895Z,19.27
2023-02-08T01:31:39.962Z,17.35
2023-02-08T01:34:09.185Z,17.45
2023-02-08T01:36:37.237Z,17.73
2023-02-08T01:39:05.673Z,16.15
2023-02-08T01:41:44.510Z,16.88
2023-02-08T01:44:11.242Z,16.73
2023-02-08T01:46:46.335Z,16.38
2023-02-08T01:49:34.222Z,16.87
2023-02-08T01:52:09.985Z,16.80
2023-02-08T01:54:40.813Z,16.58
2023-02-08T01:57:08.165Z,17.38
2023-02-08T01:59:48.977Z,18.05
2023-02-08T02:02:19.575Z,17.38
2023-02-08T02:04:47.730Z,19.10
2023-02-08T02:07:16.214Z,19.80
2023-02-08T02:09:56.060Z,20.20
2023-02-08T02:12:23.449Z,19.20
2023-02-08T02:14:50.727Z,17.48
2023-02-08T02:17:19.600Z,17.63
2023-02-08T02:20:22.783Z,19.25
2023-02-08T02:22:59.591Z,19.48
2023-02-08T02:25:47.180Z,20.00
2023-02-08T02:28:28.829Z,18.70
2023-02-08T02:31:11.719Z,18.65
2023-02-08T02:34:04.510Z,18.25
2023-02-08T02:36:32.641Z,16.80
2023-02-08T02:39:15.345Z,16.73
2023-02-08T02:42:13.448Z,17.30
2023-02-08T02:44:58.067Z,18.10
2023-02-08T02:47:32.220Z,16.85
2023-02-08T02:50:40.719Z,16.67
2023-02-08T02:53:35.058Z,16.20
2023-02-08T02:56:24.296Z,16.00
2023-02-08T02:58:53.277Z,16.52
2023-02-08T03:01:30.254Z,17.85
2023-02-08T03:03:57.583Z,17.27
2023-02-08T03:06:58.630Z,17.67
2023-02-08T03:09:45.543Z,16.70
2023-02-08T03:12:46.572Z,16.70
2023-02-08T03:15:28.633Z,16.25
2023-02-08T03:17:58.127Z,16.88
2023-02-08T03:20:41.314Z,18.48
2023-02-08T03:23:28.279Z,16.73
2023-02-08T03:26:16.163Z,18.73
2023-02-08T03:29:17.423Z,18.95
2023-02-08T03:32:01.041Z,19.95
2023-02-08T03:34:53.992Z,20.73
2023-02-08T03:37:27.869Z,21.08
2023-02-08T03:40:02.877Z,21.25
2023-02-08T03:42:32.527Z,21.70
2023-02-08T03:45:10.056Z,20.38
2023-02-08T03:47:40.910Z,20.55
2023-02-08T03:50:11.541Z,19.90
2023-02-08T03:52:39.614Z,18.80
2023-02-08T03:55:12.503Z,20.02
2023-02-08T03:57:47.334Z,19.80
2023-02-08T04:00:16.945Z,19.17
2023-02-08T04:03:03.141Z,18.77
2023-02-08T04:05:30.005Z,17.80
2023-02-08T04:07:56.822Z,17.58
2023-02-08T04:10:23.665Z,17.58
2023-02-08T04:12:50.811Z,17.50
2023-02-08T04:15:17.947Z,18.90
2023-02-08T04:17:45.311Z,19.80
2023-02-08T04:20:12.428Z,19.30
2023-02-08T04:22:39.577Z,18.70
2023-02-08T04:25:06.483Z,16.10
2023-02-08T04:27:33.271Z,18.35
2023-02-08T04:29:59.978Z,19.65
2023-02-08T04:32:26.816Z,18.30
2023-02-08T04:34:53.711Z,19.33
2023-02-08T04:37:20.474Z,17.58
2023-02-08T04:39:47.238Z,18.50
2023-02-08T04:42:14.176Z,17.77
2023-02-08T04:44:41.040Z,19.42
2023-02-08T04:47:07.872Z,20.20
2023-02-08T04:49:34.970Z,21.30
2023-02-08T04:52:01.825Z,20.67
2023-02-08T04:54:28.814Z,19.90
2023-02-08T04:56:55.703Z,20.13
2023-02-08T04:59:23.123Z,18.77
2023-02-08T05:01:50.111Z,21.02
2023-02-08T05:04:17.237Z,19.85
2023-02-08T05:06:48.062Z,20.73
2023-02-08T05:09:15.620Z,21.02
2023-02-08T05:11:42.649Z,21.38
2023-02-08T05:14:09.433Z,19.35
2023-02-08T05:16:36.345Z,19.40
2023-02-08T05:19:03.210Z,19.92
2023-02-08T05:21:30.121Z,19.85
2023-02-08T05:23:57.042Z,20.42
2023-02-08T05:26:23.835Z,19.27
2023-02-08T05:28:50.714Z,19.48
2023-02-08T05:31:20.630Z,18.00
2023-02-08T05:33:49.467Z,20.27
2023-02-08T05:36:17.158Z,19.90
2023-02-08T05:38:43.962Z,19.17
2023-02-08T05:41:10.775Z,20.13
2023-02-08T05:43:37.521Z,19.73
2023-02-08T05:46:04.459Z,20.17
2023-02-08T05:48:31.989Z,19.95
2023-02-08T05:50:59.584Z,19.55
2023-02-08T05:53:27.394Z,20.88
2023-02-08T05:55:54.588Z,20.38
2023-02-08T05:58:21.356Z,20.48
2023-02-08T06:00:48.084Z,19.98
2023-02-08T06:03:14.933Z,21.45
2023-02-08T06:05:42.192Z,21.15
2023-02-08T06:08:09.228Z,21.33
2023-02-08T06:10:36.659Z,19.63
2023-02-08T06:13:04.797Z,21.65
2023-02-08T06:15:31.821Z,20.23
2023-02-08T06:17:58.596Z,22.90
2023-02-08T06:20:25.738Z,21.33
2023-02-08T06:22:52.567Z,22.20
2023-02-08T06:25:19.864Z,21.65
2023-02-08T06:27:46.928Z,20.48
2023-02-08T06:30:14.056Z,21.00
2023-02-08T06:32:41.009Z,18.90
2023-02-08T06:35:08.324Z,19.58
2023-02-08T06:37:35.300Z,19.77
2023-02-08T06:40:02.355Z,19.80
2023-02-08T06:42:29.207Z,20.55
2023-02-08T06:44:58.008Z,20.58
2023-02-08T06:47:26.604Z,19.02
2023-02-08T06:49:54.124Z,18.98
2023-02-08T06:52:21.775Z,19.17
2023-02-08T06:54:48.510Z,18.35
2023-02-08T06:57:15.685Z,19.08
2023-02-08T06:59:42.880Z,19.88
2023-02-08T07:02:15.246Z,18.25
2023-02-08T07:04:42.277Z,18.83
2023-02-08T07:07:09.029Z,19.15
2023-02-08T07:09:36.801Z,19.70
2023-02-08T07:12:05.399Z,21.27
2023-02-08T07:14:37.241Z,22.08
2023-02-08T07:17:04.357Z,23.13
2023-02-08T07:19:31.782Z,23.27
2023-02-08T07:22:08.079Z,22.33
2023-02-08T07:24:40.829Z,22.63
2023-02-08T07:27:09.982Z,24.15
2023-02-08T07:29:37.621Z,22.90
2023-02-08T07:32:06.628Z,25.73
2023-02-08T07:34:35.819Z,25.25
2023-02-08T07:37:03.017Z,23.38
2023-02-08T07:39:31.419Z,24.38
2023-02-08T07:41:58.908Z,24.90
2023-02-08T07:44:25.842Z,23.95
2023-02-08T07:46:54.966Z,23.45
2023-02-08T07:49:21.943Z,23.63
2023-02-08T07:51:49.036Z,22.98
2023-02-08T07:54:15.859Z,22.88
2023-02-08T07:56:42.878Z,22.67
2023-02-08T07:59:09.682Z,22.38
2023-02-08T08:01:36.647Z,22.50
2023-02-08T08:04:04.007Z,21.38
2023-02-08T08:06:31.147Z,21.60
2023-02-08T08:08:58.285Z,22.25
2023-02-08T08:11:25.091Z,21.10
2023-02-08T08:13:52.536Z,19.58
2023-02-08T08:16:22.903Z,22.90
2023-02-08T08:18:50.889Z,23.20
2023-02-08T08:21:18.194Z,21.27
2023-02-08T08:23:48.221Z,20.63
2023-02-08T08:26:20.982Z,21.55
2023-02-08T08:28:48.003Z,22.17
2023-02-08T08:31:21.226Z,23.50
2023-02-08T08:33:49.067Z,24.35
2023-02-08T08:36:15.950Z,22.52
2023-02-08T08:38:42.702Z,20.17
2023-02-08T08:41:22.148Z,22.83
2023-02-08T08:43:49.494Z,21.83
2023-02-08T08:46:16.828Z,22.25
2023-02-08T08:48:43.921Z,20.70
2023-02-08T08:51:10.992Z,21.58
2023-02-08T08:53:37.732Z,20.90
2023-02-08T08:56:06.301Z,23.10
2023-02-08T08:58:33.185Z,21.83
2023-02-08T09:01:01.013Z,22.20
2023-02-08T09:03:28.774Z,22.67
2023-02-08T09:05:56.459Z,21.17
2023-02-08T09:08:23.415Z,18.88
2023-02-08T09:10:50.646Z,19.92
2023-02-08T09:13:20.156Z,20.00
2023-02-08T09:15:49.067Z,18.45
2023-02-08T09:18:16.573Z,20.55
2023-02-08T09:20:44.245Z,20.40
2023-02-08T09:23:12.331Z,19.25
2023-02-08T09:25:39.313Z,18.73
2023-02-08T09:28:07.884Z,19.10
2023-02-08T09:30:34.810Z,18.42
2023-02-08T09:33:01.642Z,19.40
2023-02-08T09:35:28.793Z,19.52
2023-02-08T09:37:58.433Z,19.23
2023-02-08T09:40:32.006Z,20.13
2023-02-08T09:43:14.556Z,19.10
2023-02-08T09:46:02.734Z,17.02
2023-02-08T09:48:35.194Z,17.40
2023-02-08T09:51:28.504Z,17.70
2023-02-08T09:54:00.150Z,17.27
2023-02-08T09:56:36.375Z,18.10
2023-02-08T09:59:06.457Z,17.83
2023-02-08T10:01:39.480Z,17.92
2023-02-08T10:04:08.646Z,18.08
2023-02-08T10:06:35.522Z,18.63
2023-02-08T10:09:06.294Z,17.85
2023-02-08T10:11:58.181Z,17.38
2023-02-08T10:14:50.629Z,18.33
2023-02-08T10:17:42.896Z,17.70
2023-02-08T10:20:24.050Z,17.98
2023-02-08T10:23:20.470Z,17.92
2023-02-08T10:26:03.807Z,17.65
2023-02-08T10:29:16.902Z,20.50
2023-02-08T10:32:35.219Z,22.30
2023-02-08T10:35:17.781Z,27.23
2023-02-08T10:37:46.348Z,31.23
2023-02-08T10:40:21.019Z,28.38
2023-02-08T10:43:17.570Z,21.70
2023-02-08T10:46:01.944Z,18.52
2023-02-08T10:48:53.256Z,17.98
2023-02-08T10:51:21.766Z,15.10
2023-02-08T10:53:48.802Z,16.20
2023-02-08T10:56:33.276Z,15.75
2023-02-08T10:59:04.882Z,17.15
2023-02-08T11:01:32.296Z,16.95
2023-02-08T11:04:12.477Z,16.95
2023-02-08T11:06:41.415Z,17.08
2023-02-08T11:09:30.772Z,16.42
2023-02-08T11:12:00.720Z,16.40
2023-02-08T11:14:46.799Z,16.48
2023-02-08T11:17:34.015Z,16.98
2023-02-08T11:22:31.235Z,18.45
2023-02-08T11:25:05.661Z,18.15
2023-02-08T11:27:39.424Z,21.02
2023-02-08T11:30:15.971Z,18.40
2023-02-08T11:32:45.050Z,21.00
2023-02-08T11:35:26.498Z,18.92
2023-02-08T11:37:56.252Z,18.60
2023-02-08T11:40:28.381Z,17.48
2023-02-08T11:42:55.940Z,17.02
2023-02-08T11:45:37.278Z,18.67
2023-02-08T11:48:05.788Z,17.48
2023-02-08T11:50:38.267Z,17.15
2023-02-08T11:53:27.997Z,15.77
2023-02-08T11:56:07.737Z,17.45
2023-02-08T11:58:34.840Z,15.68
2023-02-08T12:01:06.457Z,18.55
2023-02-08T12:03:38.422Z,15.98
2023-02-08T12:06:43.065Z,16.63
2023-02-08T12:09:09.801Z,16.30
2023-02-08T12:11:49.004Z,14.65
2023-02-08T12:14:34.555Z,14.15
2023-02-08T12:17:16.594Z,13.93
2023-02-08T12:20:10.576Z,14.52
2023-02-08T12:22:42.055Z,15.20
